createdAt,value
2019-01-02T00:00:44.357Z,0.00
2019-01-02T00:01:44.337Z,0.00
2019-01-02T00:02:44.327Z,0.00
2019-01-02T00:03:44.311Z,0.00
2019-01-02T00:04:44.306Z,0.00
2019-01-02T00:05:44.278Z,0.00
2019-01-02T00:06:44.266Z,0.00
2019-01-02T00:07:44.324Z,0.00
2019-01-02T00:08:44.219Z,0.00
2019-01-02T00:09:44.210Z,0.00
2019-01-02T00:10:44.189Z,0.00
2019-01-02T00:11:44.173Z,0.00
2019-01-02T00:12:44.155Z,0.00
2019-01-02T00:13:44.134Z,0.00
2019-01-02T00:14:44.119Z,0.00
2019-01-02T00:15:44.100Z,0.00
2019-01-02T00:16:44.084Z,0.00
2019-01-02T00:17:44.074Z,0.00
2019-01-02T00:18:44.064Z,0.00
2019-01-02T00:19:44.035Z,0.00
2019-01-02T00:20:44.017Z,0.00
2019-01-02T00:21:44.015Z,0.00
2019-01-02T00:22:43.980Z,0.00
2019-01-02T00:23:43.967Z,0.00
2019-01-02T00:24:43.943Z,0.00
2019-01-02T00:25:43.931Z,0.00
2019-01-02T00:26:43.943Z,0.00
2019-01-02T00:27:43.902Z,0.00
2019-01-02T00:28:43.880Z,0.00
2019-01-02T00:29:43.864Z,0.00
2019-01-02T00:30:43.848Z,0.00
2019-01-02T00:31:43.836Z,0.00
2019-01-02T00:32:43.810Z,0.00
2019-01-02T00:33:43.793Z,0.00
2019-01-02T00:34:43.774Z,0.00
2019-01-02T00:35:43.763Z,0.00
2019-01-02T00:36:43.749Z,0.00
2019-01-02T00:37:43.721Z,0.00
2019-01-02T00:38:43.720Z,0.00
2019-01-02T00:39:43.704Z,0.00
2019-01-02T00:40:43.672Z,0.00
2019-01-02T00:41:43.659Z,0.00
2019-01-02T00:42:43.641Z,0.00
2019-01-02T00:43:43.638Z,0.00
2019-01-02T00:44:43.608Z,0.00
2019-01-02T00:45:43.596Z,0.00
2019-01-02T00:46:43.575Z,0.00
2019-01-02T00:47:43.556Z,0.00
2019-01-02T00:48:43.542Z,0.00
2019-01-02T00:49:43.528Z,0.00
2019-01-02T00:50:43.511Z,0.00
2019-01-02T00:51:43.496Z,0.00
2019-01-02T00:52:43.467Z,0.00
2019-01-02T00:53:43.453Z,0.00
2019-01-02T00:54:43.445Z,0.00
2019-01-02T00:55:43.425Z,0.00
2019-01-02T00:56:43.423Z,0.00
2019-01-02T00:57:43.387Z,0.00
2019-01-02T00:58:43.372Z,0.00
2019-01-02T00:59:43.352Z,0.00
2019-01-02T01:00:43.332Z,0.00
2019-01-02T01:01:43.321Z,0.00
2019-01-02T01:02:43.312Z,0.00
2019-01-02T01:03:43.300Z,0.00
2019-01-02T01:04:43.290Z,0.00
2019-01-02T01:05:43.255Z,0.00
2019-01-02T01:06:43.235Z,0.00
2019-01-02T01:07:43.217Z,0.00
2019-01-02T01:08:43.199Z,0.00
2019-01-02T01:09:43.181Z,0.00
2019-01-02T01:10:43.164Z,0.00
2019-01-02T01:11:43.151Z,0.00
2019-01-02T01:12:43.131Z,0.00
2019-01-02T01:13:43.116Z,0.00
2019-01-02T01:14:43.100Z,0.00
2019-01-02T01:15:43.082Z,0.00
2019-01-02T01:16:43.061Z,0.00
2019-01-02T01:17:43.052Z,0.00
2019-01-02T01:18:43.029Z,0.00
2019-01-02T01:19:43.013Z,0.00
2019-01-02T01:20:42.999Z,0.00
2019-01-02T01:21:42.975Z,0.00
2019-01-02T01:22:42.962Z,0.00
2019-01-02T01:23:42.935Z,0.00
2019-01-02T01:24:42.929Z,0.00
2019-01-02T01:25:42.905Z,0.00
2019-01-02T01:26:42.891Z,0.00
2019-01-02T01:27:42.876Z,0.00
2019-01-02T01:28:42.861Z,0.00
2019-01-02T01:29:42.846Z,0.00
2019-01-02T01:30:42.826Z,0.00
2019-01-02T01:31:42.804Z,0.00
2019-01-02T01:32:42.790Z,0.00
2019-01-02T01:33:42.771Z,0.00
2019-01-02T01:34:42.753Z,0.00
2019-01-02T01:35:42.736Z,0.00
2019-01-02T01:36:42.726Z,0.00
2019-01-02T01:37:42.696Z,0.00
2019-01-02T01:38:42.685Z,0.00
2019-01-02T01:39:42.684Z,0.00
2019-01-02T01:40:42.657Z,0.00
2019-01-02T01:41:42.678Z,0.00
2019-01-02T01:42:42.616Z,0.00
2019-01-02T01:43:42.621Z,0.00
2019-01-02T01:44:42.593Z,0.00
2019-01-02T01:45:42.568Z,0.00
2019-01-02T01:46:42.546Z,0.00
2019-01-02T01:47:42.533Z,0.00
2019-01-02T01:48:42.515Z,0.00
2019-01-02T01:49:42.497Z,0.00
2019-01-02T01:50:42.483Z,0.00
2019-01-02T01:51:42.467Z,0.00
2019-01-02T01:52:42.451Z,0.00
2019-01-02T01:53:42.433Z,0.00
2019-01-02T01:54:42.418Z,0.00
2019-01-02T01:55:42.394Z,0.00
2019-01-02T01:56:42.379Z,0.00
2019-01-02T01:57:42.362Z,0.00
2019-01-02T01:58:42.344Z,0.00
2019-01-02T01:59:42.328Z,0.00
2019-01-02T02:00:42.313Z,0.00
2019-01-02T02:01:42.294Z,0.00
2019-01-02T02:02:42.273Z,0.00
2019-01-02T02:03:42.255Z,0.00
2019-01-02T02:04:42.245Z,0.00
2019-01-02T02:05:42.224Z,0.00
2019-01-02T02:06:42.205Z,0.00
2019-01-02T02:07:42.195Z,0.00
2019-01-02T02:08:42.171Z,0.00
2019-01-02T02:09:42.147Z,0.00
2019-01-02T02:10:42.138Z,0.00
2019-01-02T02:11:42.118Z,0.00
2019-01-02T02:12:42.102Z,0.00
2019-01-02T02:13:42.090Z,0.00
2019-01-02T02:14:42.080Z,0.00
2019-01-02T02:15:42.058Z,0.00
2019-01-02T02:16:42.028Z,0.00
2019-01-02T02:17:42.013Z,0.00
2019-01-02T02:18:42.014Z,0.00
2019-01-02T02:19:41.979Z,0.00
2019-01-02T02:20:41.963Z,0.00
2019-01-02T02:21:41.945Z,0.00
2019-01-02T02:22:41.931Z,0.00
2019-01-02T02:23:41.913Z,0.00
2019-01-02T02:24:41.897Z,0.00
2019-01-02T02:25:41.879Z,0.00
2019-01-02T02:26:41.876Z,0.00
2019-01-02T02:27:41.852Z,0.00
2019-01-02T02:28:41.828Z,0.00
2019-01-02T02:29:41.806Z,0.00
2019-01-02T02:30:41.791Z,0.00
2019-01-02T02:31:41.791Z,0.00
2019-01-02T02:32:41.771Z,0.00
2019-01-02T02:33:41.748Z,0.00
2019-01-02T02:34:41.720Z,0.00
2019-01-02T02:35:41.712Z,0.00
2019-01-02T02:36:41.690Z,0.00
2019-01-02T02:37:41.670Z,0.00
2019-01-02T02:38:41.655Z,0.00
2019-01-02T02:39:41.633Z,0.00
2019-01-02T02:40:41.613Z,0.00
2019-01-02T02:41:41.602Z,0.00
2019-01-02T02:42:41.579Z,0.00
2019-01-02T02:43:41.568Z,0.00
2019-01-02T02:44:41.552Z,0.00
2019-01-02T02:45:41.529Z,0.00
2019-01-02T02:46:41.508Z,0.00
2019-01-02T02:47:41.503Z,0.00
2019-01-02T02:48:41.476Z,0.00
2019-01-02T02:49:41.456Z,0.00
2019-01-02T02:50:41.438Z,0.00
2019-01-02T02:51:41.424Z,0.00
2019-01-02T02:52:41.419Z,0.00
2019-01-02T02:53:41.381Z,0.00
2019-01-02T02:54:41.367Z,0.00
2019-01-02T02:55:41.349Z,0.00
2019-01-02T02:56:41.337Z,0.00
2019-01-02T02:57:41.307Z,0.00
2019-01-02T02:58:41.299Z,0.00
2019-01-02T02:59:41.282Z,0.00
2019-01-02T03:00:41.263Z,0.00
2019-01-02T03:01:41.244Z,0.00
2019-01-02T03:02:41.224Z,0.00
2019-01-02T03:03:41.213Z,0.00
2019-01-02T03:04:41.184Z,0.00
2019-01-02T03:05:41.175Z,0.00
2019-01-02T03:06:41.157Z,0.00
2019-01-02T03:07:41.137Z,0.00
2019-01-02T03:08:41.134Z,0.00
2019-01-02T03:09:41.103Z,0.00
2019-01-02T03:10:41.087Z,0.00
2019-01-02T03:11:41.077Z,0.00
2019-01-02T03:12:41.053Z,0.00
2019-01-02T03:13:41.035Z,0.00
2019-01-02T03:14:41.012Z,0.00
2019-01-02T03:15:40.996Z,0.00
2019-01-02T03:16:40.974Z,0.00
2019-01-02T03:17:40.956Z,0.00
2019-01-02T03:18:41.001Z,0.00
2019-01-02T03:19:40.924Z,0.00
2019-01-02T03:20:40.904Z,0.00
2019-01-02T03:21:40.890Z,0.00
2019-01-02T03:22:40.867Z,0.00
2019-01-02T03:23:40.853Z,0.00
2019-01-02T03:24:40.837Z,0.00
2019-01-02T03:25:40.819Z,0.00
2019-01-02T03:26:40.814Z,0.00
2019-01-02T03:27:40.792Z,0.00
2019-01-02T03:28:40.758Z,0.00
2019-01-02T03:29:40.754Z,0.00
2019-01-02T03:30:40.731Z,0.00
2019-01-02T03:31:40.710Z,0.00
2019-01-02T03:32:40.685Z,0.00
2019-01-02T03:33:40.675Z,0.00
2019-01-02T03:34:40.661Z,0.00
2019-01-02T03:35:40.640Z,0.00
2019-01-02T03:36:40.617Z,0.00
2019-01-02T03:37:40.599Z,0.00
2019-01-02T03:38:40.589Z,0.00
2019-01-02T03:39:40.570Z,0.00
2019-01-02T03:40:40.555Z,0.00
2019-01-02T03:41:40.533Z,0.00
2019-01-02T03:42:40.508Z,0.00
2019-01-02T03:43:40.492Z,0.00
2019-01-02T03:44:40.473Z,0.00
2019-01-02T03:45:40.475Z,0.00
2019-01-02T03:46:40.438Z,0.00
2019-01-02T03:47:40.421Z,0.00
2019-01-02T03:48:40.401Z,0.00
2019-01-02T03:49:40.406Z,0.00
2019-01-02T03:50:40.366Z,0.00
2019-01-02T03:51:40.350Z,0.00
2019-01-02T03:52:40.332Z,0.00
2019-01-02T03:53:40.316Z,0.00
2019-01-02T03:54:40.293Z,0.00
2019-01-02T03:55:40.325Z,0.00
2019-01-02T03:56:40.259Z,0.00
2019-01-02T03:57:40.259Z,0.00
2019-01-02T03:58:40.232Z,0.00
2019-01-02T03:59:40.218Z,0.00
2019-01-02T04:00:40.186Z,0.00
2019-01-02T04:01:40.169Z,0.00
2019-01-02T04:02:40.155Z,0.00
2019-01-02T04:03:40.135Z,0.00
2019-01-02T04:04:40.111Z,0.00
2019-01-02T04:05:40.099Z,0.00
2019-01-02T04:06:40.079Z,0.00
2019-01-02T04:07:40.057Z,0.00
2019-01-02T04:08:40.041Z,0.00
2019-01-02T04:09:40.023Z,0.00
2019-01-02T04:10:40.006Z,0.00
2019-01-02T04:11:39.982Z,0.00
2019-01-02T04:12:39.968Z,0.00
2019-01-02T04:13:39.951Z,0.00
2019-01-02T04:14:39.934Z,0.00
2019-01-02T04:15:39.906Z,0.00
2019-01-02T04:16:39.896Z,0.00
2019-01-02T04:17:39.880Z,0.00
2019-01-02T04:18:39.857Z,0.00
2019-01-02T04:19:39.837Z,0.00
2019-01-02T04:20:39.817Z,0.00
2019-01-02T04:21:39.803Z,0.00
2019-01-02T04:22:39.786Z,0.00
2019-01-02T04:23:39.763Z,0.00
2019-01-02T04:24:39.744Z,0.00
2019-01-02T04:25:39.729Z,0.00
2019-01-02T04:26:39.720Z,0.00
2019-01-02T04:27:39.686Z,0.00
2019-01-02T04:28:39.676Z,0.00
2019-01-02T04:29:39.658Z,0.00
2019-01-02T04:30:39.655Z,0.00
2019-01-02T04:31:39.615Z,0.00
2019-01-02T04:32:39.607Z,0.00
2019-01-02T04:33:39.581Z,0.00
2019-01-02T04:34:39.570Z,0.00
2019-01-02T04:35:39.542Z,0.00
2019-01-02T04:36:39.532Z,0.00
2019-01-02T04:37:39.508Z,0.00
2019-01-02T04:38:39.490Z,0.00
2019-01-02T04:39:39.468Z,0.00
2019-01-02T04:40:39.452Z,0.00
2019-01-02T04:41:39.430Z,0.00
2019-01-02T04:42:39.420Z,0.00
2019-01-02T04:43:39.395Z,0.00
2019-01-02T04:44:39.376Z,0.00
2019-01-02T04:45:39.355Z,0.00
2019-01-02T04:46:39.341Z,0.00
2019-01-02T04:47:39.325Z,0.00
2019-01-02T04:48:39.305Z,0.00
2019-01-02T04:49:39.283Z,0.00
2019-01-02T04:50:39.264Z,0.00
2019-01-02T04:51:39.264Z,0.00
2019-01-02T04:52:39.241Z,0.00
2019-01-02T04:53:39.209Z,0.00
2019-01-02T04:54:39.202Z,0.00
2019-01-02T04:55:39.188Z,0.00
2019-01-02T04:56:39.153Z,0.00
2019-01-02T04:57:39.140Z,0.00
2019-01-02T04:58:39.113Z,0.00
2019-01-02T04:59:39.103Z,0.00
2019-01-02T05:00:39.077Z,0.00
2019-01-02T05:01:39.064Z,0.00
2019-01-02T05:02:39.040Z,0.00
2019-01-02T05:03:39.022Z,0.00
2019-01-02T05:04:39.008Z,0.00
2019-01-02T05:05:38.984Z,0.00
2019-01-02T05:06:38.968Z,0.00
2019-01-02T05:07:38.963Z,0.00
2019-01-02T05:08:38.924Z,0.00
2019-01-02T05:09:38.902Z,0.00
2019-01-02T05:10:38.887Z,0.00
2019-01-02T05:11:38.870Z,0.00
2019-01-02T05:12:38.853Z,0.00
2019-01-02T05:13:38.835Z,0.00
2019-01-02T05:14:38.815Z,0.00
2019-01-02T05:15:38.808Z,0.00
2019-01-02T05:16:38.778Z,0.00
2019-01-02T05:17:38.758Z,0.00
2019-01-02T05:18:38.736Z,0.00
2019-01-02T05:19:38.722Z,0.00
2019-01-02T05:20:38.707Z,0.00
2019-01-02T05:21:38.684Z,0.00
2019-01-02T05:22:38.659Z,0.00
2019-01-02T05:23:38.639Z,0.00
2019-01-02T05:24:38.623Z,0.00
2019-01-02T05:25:38.607Z,0.00
2019-01-02T05:26:38.586Z,0.00
2019-01-02T05:27:38.569Z,0.00
2019-01-02T05:28:38.547Z,0.00
2019-01-02T05:29:38.529Z,0.00
2019-01-02T05:30:38.510Z,0.00
2019-01-02T05:31:38.500Z,0.00
2019-01-02T05:32:38.464Z,0.00
2019-01-02T05:33:38.459Z,0.00
2019-01-02T05:34:38.439Z,0.00
2019-01-02T05:35:38.413Z,0.00
2019-01-02T05:36:38.392Z,0.00
2019-01-02T05:37:38.424Z,0.00
2019-01-02T05:38:38.363Z,0.00
2019-01-02T05:39:38.343Z,0.00
2019-01-02T05:40:38.321Z,0.00
2019-01-02T05:41:38.297Z,0.00
2019-01-02T05:42:38.280Z,0.00
2019-01-02T05:43:38.266Z,0.00
2019-01-02T05:44:38.242Z,0.00
2019-01-02T05:45:38.239Z,0.00
2019-01-02T05:46:38.206Z,0.00
2019-01-02T05:47:38.190Z,0.00
2019-01-02T05:48:38.168Z,0.00
2019-01-02T05:49:38.149Z,0.00
2019-01-02T05:50:38.133Z,0.00
2019-01-02T05:51:38.113Z,0.00
2019-01-02T05:52:38.094Z,0.00
2019-01-02T05:53:38.073Z,0.00
2019-01-02T05:54:38.055Z,0.00
2019-01-02T05:55:38.034Z,0.00
2019-01-02T05:56:38.018Z,0.00
2019-01-02T05:57:38.000Z,0.00
2019-01-02T05:58:37.980Z,0.00
2019-01-02T05:59:37.960Z,0.00
2019-01-02T06:00:39.884Z,0.00
2019-01-02T06:01:37.922Z,0.00
2019-01-02T06:02:37.901Z,0.00
2019-01-02T06:03:37.885Z,0.00
2019-01-02T06:04:37.863Z,0.00
2019-01-02T06:05:37.848Z,0.00
2019-01-02T06:06:37.830Z,0.00
2019-01-02T06:07:37.810Z,0.00
2019-01-02T06:08:37.786Z,0.00
2019-01-02T06:09:37.768Z,0.00
2019-01-02T06:10:37.749Z,0.00
2019-01-02T06:11:37.731Z,0.00
2019-01-02T06:12:37.711Z,0.00
2019-01-02T06:13:37.708Z,0.00
2019-01-02T06:14:37.675Z,0.00
2019-01-02T06:15:37.660Z,0.00
2019-01-02T06:16:37.633Z,0.00
2019-01-02T06:17:37.615Z,0.00
2019-01-02T06:18:37.602Z,0.00
2019-01-02T06:19:37.584Z,0.00
2019-01-02T06:20:37.558Z,0.00
2019-01-02T06:21:37.533Z,0.00
2019-01-02T06:22:37.522Z,0.00
2019-01-02T06:23:37.506Z,0.00
2019-01-02T06:24:37.489Z,0.00
2019-01-02T06:25:37.467Z,0.00
2019-01-02T06:26:37.443Z,0.00
2019-01-02T06:27:37.420Z,0.00
2019-01-02T06:28:37.400Z,0.00
2019-01-02T06:29:37.388Z,0.00
2019-01-02T06:30:37.372Z,0.00
2019-01-02T06:31:37.355Z,0.00
2019-01-02T06:32:37.326Z,0.00
2019-01-02T06:33:37.312Z,0.00
2019-01-02T06:34:37.295Z,0.00
2019-01-02T06:35:37.279Z,0.00
2019-01-02T06:36:37.250Z,0.00
2019-01-02T06:37:37.234Z,0.00
2019-01-02T06:38:37.218Z,0.00
2019-01-02T06:39:37.200Z,0.00
2019-01-02T06:40:37.174Z,0.00
2019-01-02T06:41:37.155Z,0.00
2019-01-02T06:42:37.137Z,0.00
2019-01-02T06:43:37.119Z,0.00
2019-01-02T06:44:37.113Z,0.00
2019-01-02T06:45:37.081Z,0.00
2019-01-02T06:46:37.070Z,0.00
2019-01-02T06:47:37.043Z,0.00
2019-01-02T06:48:37.028Z,0.00
2019-01-02T06:49:37.007Z,0.00
2019-01-02T06:50:36.985Z,0.00
2019-01-02T06:51:36.960Z,0.00
2019-01-02T06:52:36.954Z,0.00
2019-01-02T06:53:36.920Z,0.00
2019-01-02T06:54:36.908Z,0.00
2019-01-02T06:55:36.882Z,0.00
2019-01-02T06:56:36.864Z,0.00
2019-01-02T06:57:36.844Z,0.00
2019-01-02T06:58:36.825Z,0.00
2019-01-02T06:59:36.811Z,0.00
2019-01-02T07:00:36.789Z,0.00
2019-01-02T07:01:36.769Z,0.00
2019-01-02T07:02:36.747Z,0.00
2019-01-02T07:03:36.731Z,0.00
2019-01-02T07:04:36.711Z,0.00
2019-01-02T07:05:36.689Z,0.00
2019-01-02T07:06:36.668Z,0.00
2019-01-02T07:07:36.644Z,0.00
2019-01-02T07:08:36.632Z,0.00
2019-01-02T07:09:36.612Z,0.00
2019-01-02T07:10:36.596Z,0.00
2019-01-02T07:11:36.582Z,0.00
2019-01-02T07:12:36.558Z,0.00
2019-01-02T07:13:36.533Z,0.00
2019-01-02T07:14:36.515Z,0.00
2019-01-02T07:15:36.507Z,0.00
2019-01-02T07:16:36.483Z,0.00
2019-01-02T07:17:36.459Z,0.00
2019-01-02T07:18:36.437Z,0.00
2019-01-02T07:19:36.467Z,0.00
2019-01-02T07:20:36.401Z,0.00
2019-01-02T07:21:36.386Z,0.00
2019-01-02T07:22:36.360Z,0.00
2019-01-02T07:23:36.336Z,0.00
2019-01-02T07:24:36.324Z,0.00
2019-01-02T07:25:36.298Z,0.00
2019-01-02T07:26:36.278Z,0.00
2019-01-02T07:27:36.264Z,0.00
2019-01-02T07:28:36.242Z,0.00
2019-01-02T07:29:36.232Z,0.00
2019-01-02T07:30:36.215Z,0.00
2019-01-02T07:31:36.197Z,0.00
2019-01-02T07:32:36.165Z,0.00
2019-01-02T07:33:36.142Z,0.00
2019-01-02T07:34:36.125Z,0.00
2019-01-02T07:35:36.101Z,0.00
2019-01-02T07:36:36.079Z,0.00
2019-01-02T07:37:36.070Z,0.00
2019-01-02T07:38:36.058Z,0.00
2019-01-02T07:39:36.026Z,0.00
2019-01-02T07:40:36.003Z,5.63
2019-01-02T07:41:35.981Z,5.63
2019-01-02T07:42:35.967Z,5.63
2019-01-02T07:43:36.560Z,5.63
2019-01-02T07:44:35.923Z,5.63
2019-01-02T07:45:35.917Z,5.63
2019-01-02T07:46:35.885Z,5.63
2019-01-02T07:47:35.869Z,5.63
2019-01-02T07:48:35.844Z,0.00
2019-01-02T07:49:35.823Z,0.00
2019-01-02T07:50:35.806Z,5.63
2019-01-02T07:51:35.798Z,5.63
2019-01-02T07:52:35.772Z,5.63
2019-01-02T07:53:35.745Z,0.00
2019-01-02T07:54:35.720Z,0.00
2019-01-02T07:55:35.704Z,0.00
2019-01-02T07:56:35.684Z,0.00
2019-01-02T07:57:35.668Z,0.00
2019-01-02T07:58:35.646Z,5.63
2019-01-02T07:59:35.620Z,5.63
2019-01-02T08:00:35.610Z,5.63
2019-01-02T08:01:35.591Z,5.63
2019-01-02T08:02:35.559Z,5.63
2019-01-02T08:03:35.543Z,5.63
2019-01-02T08:04:35.535Z,5.63
2019-01-02T08:05:35.521Z,5.63
2019-01-02T08:06:35.484Z,5.63
2019-01-02T08:07:35.467Z,5.63
2019-01-02T08:08:35.443Z,5.63
2019-01-02T08:09:35.472Z,5.63
2019-01-02T08:10:35.407Z,5.63
2019-01-02T08:11:35.396Z,5.63
2019-01-02T08:12:35.368Z,5.63
2019-01-02T08:13:35.347Z,5.63
2019-01-02T08:14:35.323Z,11.25
2019-01-02T08:15:35.315Z,11.25
2019-01-02T08:16:35.288Z,11.25
2019-01-02T08:17:35.264Z,11.25
2019-01-02T08:18:35.250Z,11.25
2019-01-02T08:19:35.232Z,11.25
2019-01-02T08:20:35.203Z,11.25
2019-01-02T08:21:35.186Z,16.88
2019-01-02T08:22:35.176Z,16.88
2019-01-02T08:23:35.152Z,11.25
2019-01-02T08:24:35.126Z,11.25
2019-01-02T08:25:35.111Z,16.88
2019-01-02T08:26:35.102Z,16.88
2019-01-02T08:27:35.070Z,16.88
2019-01-02T08:28:35.050Z,16.88
2019-01-02T08:29:35.029Z,16.88
2019-01-02T08:30:35.015Z,16.88
2019-01-02T08:31:34.995Z,11.25
2019-01-02T08:32:34.971Z,11.25
2019-01-02T08:33:34.952Z,11.25
2019-01-02T08:34:34.933Z,11.25
2019-01-02T08:35:34.958Z,11.25
2019-01-02T08:36:34.891Z,11.25
2019-01-02T08:37:34.872Z,16.88
2019-01-02T08:38:34.856Z,16.88
2019-01-02T08:39:34.844Z,22.50
2019-01-02T08:40:34.811Z,22.50
2019-01-02T08:41:34.795Z,22.50
2019-01-02T08:42:34.775Z,28.13
2019-01-02T08:43:34.771Z,22.50
2019-01-02T08:44:34.736Z,22.50
2019-01-02T08:45:34.716Z,28.13
2019-01-02T08:46:34.692Z,28.13
2019-01-02T08:47:34.700Z,28.13
2019-01-02T08:48:34.654Z,28.13
2019-01-02T08:49:34.650Z,28.13
2019-01-02T08:50:34.615Z,28.13
2019-01-02T08:51:34.596Z,33.75
2019-01-02T08:52:34.581Z,39.38
2019-01-02T08:53:34.549Z,39.38
2019-01-02T08:54:34.541Z,45.00
2019-01-02T08:55:34.517Z,39.38
2019-01-02T08:56:34.494Z,33.75
2019-01-02T08:57:34.478Z,33.75
2019-01-02T08:58:34.458Z,33.75
2019-01-02T08:59:34.438Z,33.75
2019-01-02T09:00:34.414Z,33.75
2019-01-02T09:01:34.399Z,33.75
2019-01-02T09:02:34.380Z,33.75
2019-01-02T09:03:34.367Z,33.75
2019-01-02T09:04:34.428Z,33.75
2019-01-02T09:05:34.324Z,33.75
2019-01-02T09:06:34.301Z,33.75
2019-01-02T09:07:34.282Z,33.75
2019-01-02T09:08:34.261Z,33.75
2019-01-02T09:09:34.243Z,33.75
2019-01-02T09:10:34.223Z,33.75
2019-01-02T09:11:34.202Z,33.75
2019-01-02T09:12:34.183Z,33.75
2019-01-02T09:13:34.164Z,33.75
2019-01-02T09:14:34.146Z,33.75
2019-01-02T09:15:34.130Z,33.75
2019-01-02T09:16:34.106Z,33.75
2019-01-02T09:17:34.084Z,33.75
2019-01-02T09:18:34.063Z,39.38
2019-01-02T09:19:34.044Z,45.00
2019-01-02T09:20:34.033Z,50.63
2019-01-02T09:21:34.011Z,45.00
2019-01-02T09:22:33.996Z,39.38
2019-01-02T09:23:33.965Z,39.38
2019-01-02T09:24:33.957Z,39.38
2019-01-02T09:25:33.929Z,39.38
2019-01-02T09:26:33.909Z,39.38
2019-01-02T09:27:33.891Z,39.38
2019-01-02T09:28:33.864Z,39.38
2019-01-02T09:29:33.846Z,39.38
2019-01-02T09:30:33.823Z,39.38
2019-01-02T09:31:33.806Z,39.38
2019-01-02T09:32:33.788Z,39.38
2019-01-02T09:33:33.765Z,33.75
2019-01-02T09:34:33.746Z,33.75
2019-01-02T09:35:33.726Z,33.75
2019-01-02T09:36:33.705Z,33.75
2019-01-02T09:37:33.690Z,39.38
2019-01-02T09:38:33.671Z,45.00
2019-01-02T09:39:33.648Z,50.63
2019-01-02T09:40:33.644Z,56.25
2019-01-02T09:41:33.605Z,56.25
2019-01-02T09:42:33.591Z,56.25
2019-01-02T09:43:33.574Z,61.88
2019-01-02T09:44:33.548Z,67.50
2019-01-02T09:45:33.526Z,67.50
2019-01-02T09:46:33.550Z,61.88
2019-01-02T09:47:33.497Z,61.88
2019-01-02T09:48:33.464Z,56.25
2019-01-02T09:49:33.472Z,50.63
2019-01-02T09:50:33.429Z,50.63
2019-01-02T09:51:33.409Z,50.63
2019-01-02T09:52:33.394Z,50.63
2019-01-02T09:53:33.365Z,50.63
2019-01-02T09:54:33.362Z,50.63
2019-01-02T09:55:33.332Z,56.25
2019-01-02T09:56:33.312Z,61.88
2019-01-02T09:57:33.292Z,61.88
2019-01-02T09:58:33.278Z,56.25
2019-01-02T09:59:33.251Z,50.63
2019-01-02T10:00:33.238Z,56.25
2019-01-02T10:01:33.218Z,56.25
2019-01-02T10:02:33.195Z,61.88
2019-01-02T10:03:33.177Z,56.25
2019-01-02T10:04:33.190Z,56.25
2019-01-02T10:05:33.143Z,50.63
2019-01-02T10:06:33.117Z,45.00
2019-01-02T10:07:33.098Z,39.38
2019-01-02T10:08:33.142Z,39.38
2019-01-02T10:09:33.060Z,39.38
2019-01-02T10:10:33.050Z,45.00
2019-01-02T10:11:33.022Z,39.38
2019-01-02T10:12:33.002Z,39.38
2019-01-02T10:13:32.982Z,39.38
2019-01-02T10:14:32.966Z,45.00
2019-01-02T10:15:32.954Z,45.00
2019-01-02T10:16:32.921Z,45.00
2019-01-02T10:17:32.905Z,45.00
2019-01-02T10:18:32.889Z,45.00
2019-01-02T10:19:32.863Z,45.00
2019-01-02T10:20:32.845Z,45.00
2019-01-02T10:21:32.828Z,45.00
2019-01-02T10:22:32.806Z,45.00
2019-01-02T10:23:32.785Z,45.00
2019-01-02T10:24:32.766Z,39.38
2019-01-02T10:25:32.745Z,45.00
2019-01-02T10:26:32.731Z,45.00
2019-01-02T10:27:32.709Z,45.00
2019-01-02T10:28:32.683Z,45.00
2019-01-02T10:29:32.666Z,39.38
2019-01-02T10:30:32.655Z,33.75
2019-01-02T10:31:32.631Z,39.38
2019-01-02T10:32:32.657Z,33.75
2019-01-02T10:33:32.594Z,33.75
2019-01-02T10:34:32.564Z,39.38
2019-01-02T10:35:32.555Z,39.38
2019-01-02T10:36:32.529Z,45.00
2019-01-02T10:37:32.510Z,50.63
2019-01-02T10:38:32.488Z,56.25
2019-01-02T10:39:32.480Z,56.25
2019-01-02T10:40:32.454Z,50.63
2019-01-02T10:41:32.435Z,45.00
2019-01-02T10:42:32.410Z,45.00
2019-01-02T10:43:32.401Z,50.63
2019-01-02T10:44:32.383Z,50.63
2019-01-02T10:45:32.348Z,50.63
2019-01-02T10:46:32.332Z,50.63
2019-01-02T10:47:33.685Z,50.63
2019-01-02T10:48:32.288Z,50.63
2019-01-02T10:49:32.278Z,50.63
2019-01-02T10:50:32.256Z,45.00
2019-01-02T10:51:32.237Z,39.38
2019-01-02T10:52:32.208Z,45.00
2019-01-02T10:53:32.196Z,45.00
2019-01-02T10:54:32.180Z,45.00
2019-01-02T10:55:32.148Z,39.38
2019-01-02T10:56:32.128Z,39.38
2019-01-02T10:57:32.129Z,39.38
2019-01-02T10:58:36.578Z,39.38
2019-01-02T10:59:32.070Z,39.38
2019-01-02T11:00:32.055Z,39.38
2019-01-02T11:01:32.029Z,56.25
2019-01-02T11:02:32.017Z,61.88
2019-01-02T11:03:31.999Z,61.88
2019-01-02T11:04:31.972Z,50.63
2019-01-02T11:05:31.952Z,45.00
2019-01-02T11:06:31.932Z,50.63
2019-01-02T11:07:31.925Z,56.25
2019-01-02T11:08:31.886Z,67.50
2019-01-02T11:09:31.870Z,67.50
2019-01-02T11:10:31.850Z,67.50
2019-01-02T11:11:31.834Z,61.88
2019-01-02T11:12:31.814Z,56.25
2019-01-02T11:13:31.799Z,50.63
2019-01-02T11:14:31.779Z,50.63
2019-01-02T11:15:31.754Z,45.00
2019-01-02T11:16:31.736Z,45.00
2019-01-02T11:17:31.713Z,45.00
2019-01-02T11:18:31.700Z,45.00
2019-01-02T11:19:31.672Z,45.00
2019-01-02T11:20:31.652Z,45.00
2019-01-02T11:21:31.634Z,50.63
2019-01-02T11:22:31.619Z,50.63
2019-01-02T11:23:31.593Z,50.63
2019-01-02T11:24:31.578Z,50.63
2019-01-02T11:25:31.550Z,50.63
2019-01-02T11:26:31.534Z,56.25
2019-01-02T11:27:31.517Z,61.88
2019-01-02T11:28:31.490Z,56.25
2019-01-02T11:29:31.473Z,45.00
2019-01-02T11:30:31.453Z,39.38
2019-01-02T11:31:31.437Z,39.38
2019-01-02T11:32:31.413Z,39.38
2019-01-02T11:33:31.395Z,39.38
2019-01-02T11:34:31.375Z,33.75
2019-01-02T11:35:31.357Z,33.75
2019-01-02T11:36:31.337Z,33.75
2019-01-02T11:37:31.312Z,33.75
2019-01-02T11:38:31.291Z,39.38
2019-01-02T11:39:31.275Z,45.00
2019-01-02T11:40:31.246Z,45.00
2019-01-02T11:41:31.232Z,39.38
2019-01-02T11:42:31.208Z,33.75
2019-01-02T11:43:31.191Z,39.38
2019-01-02T11:44:31.179Z,39.38
2019-01-02T11:45:31.148Z,39.38
2019-01-02T11:46:31.133Z,33.75
2019-01-02T11:47:31.113Z,39.38
2019-01-02T11:48:31.092Z,39.38
2019-01-02T11:49:31.080Z,33.75
2019-01-02T11:50:31.054Z,28.13
2019-01-02T11:51:31.037Z,33.75
2019-01-02T11:52:31.013Z,33.75
2019-01-02T11:53:30.992Z,39.38
2019-01-02T11:54:30.978Z,39.38
2019-01-02T11:55:30.952Z,45.00
2019-01-02T11:56:30.934Z,45.00
2019-01-02T11:57:30.917Z,39.38
2019-01-02T11:58:30.897Z,39.38
2019-01-02T11:59:30.873Z,45.00
2019-01-02T12:00:30.853Z,50.63
2019-01-02T12:01:30.835Z,56.25
2019-01-02T12:02:34.215Z,56.25
2019-01-02T12:03:30.790Z,56.25
2019-01-02T12:04:30.768Z,56.25
2019-01-02T12:05:30.756Z,50.63
2019-01-02T12:06:30.735Z,39.38
2019-01-02T12:07:30.714Z,39.38
2019-01-02T12:08:30.688Z,39.38
2019-01-02T12:09:30.669Z,33.75
2019-01-02T12:10:30.657Z,33.75
2019-01-02T12:11:30.632Z,28.13
2019-01-02T12:12:30.611Z,28.13
2019-01-02T12:13:30.601Z,33.75
2019-01-02T12:14:30.573Z,33.75
2019-01-02T12:15:30.551Z,33.75
2019-01-02T12:16:30.533Z,33.75
2019-01-02T12:17:30.520Z,33.75
2019-01-02T12:18:30.490Z,28.13
2019-01-02T12:19:30.472Z,28.13
2019-01-02T12:20:30.453Z,28.13
2019-01-02T12:21:30.430Z,33.75
2019-01-02T12:22:30.409Z,33.75
2019-01-02T12:23:30.393Z,33.75
2019-01-02T12:24:30.368Z,28.13
2019-01-02T12:25:30.351Z,22.50
2019-01-02T12:26:30.329Z,28.13
2019-01-02T12:27:30.309Z,33.75
2019-01-02T12:28:30.289Z,39.38
2019-01-02T12:29:30.263Z,39.38
2019-01-02T12:30:30.248Z,33.75
2019-01-02T12:31:30.223Z,33.75
2019-01-02T12:32:30.208Z,33.75
2019-01-02T12:33:30.185Z,28.13
2019-01-02T12:34:30.162Z,28.13
2019-01-02T12:35:30.151Z,22.50
2019-01-02T12:36:30.125Z,16.88
2019-01-02T12:37:30.129Z,16.88
2019-01-02T12:38:30.089Z,16.88
2019-01-02T12:39:30.069Z,16.88
2019-01-02T12:40:30.040Z,22.50
2019-01-02T12:41:30.019Z,22.50
2019-01-02T12:42:30.004Z,28.13
2019-01-02T12:43:29.978Z,28.13
2019-01-02T12:44:29.958Z,22.50
2019-01-02T12:45:29.944Z,22.50
2019-01-02T12:46:29.917Z,22.50
2019-01-02T12:47:29.942Z,22.50
2019-01-02T12:48:29.881Z,22.50
2019-01-02T12:49:29.862Z,22.50
2019-01-02T12:50:29.839Z,22.50
2019-01-02T12:51:29.818Z,22.50
2019-01-02T12:52:29.802Z,22.50
2019-01-02T12:53:29.785Z,22.50
2019-01-02T12:54:29.768Z,22.50
2019-01-02T12:55:29.741Z,22.50
2019-01-02T12:56:29.718Z,16.88
2019-01-02T12:57:29.694Z,16.88
2019-01-02T12:58:29.678Z,16.88
2019-01-02T12:59:29.658Z,16.88
2019-01-02T13:00:29.642Z,16.88
2019-01-02T13:01:29.615Z,16.88
2019-01-02T13:02:29.605Z,16.88
2019-01-02T13:03:29.579Z,22.50
2019-01-02T13:04:29.558Z,28.13
2019-01-02T13:05:29.535Z,33.75
2019-01-02T13:06:29.510Z,28.13
2019-01-02T13:07:29.490Z,22.50
2019-01-02T13:08:29.483Z,22.50